Portada
METAR-TAF:

METAR-TAF

Aeropuertos :

Cuneo, Italia

latitud: 44-32-47N, longitud: 007-37-20E, altitud: 386 m

Observación

El informe se hizo hace 21 minutos, a las 18:50 UTC
Viento 4 kt del oeste
Temperatura 7°C
Humedad 49%
Presión 1023 hPa
Visibilidad 10 km o más
sin nubes por debajo de 1500 m y sin presencia de cumulonimbus.

METAR: LIMZ 201850Z 28004KT CAVOK 07/M03 Q1023

Hora: 20:11 (19:11 UTC)

Pronóstico

El informe se hizo hace 2 horas y 11 minutos, a las 17:00 UTC
Pronóstico válido del 20 a las 18 UTC al 21 a las 18 UTC
Viento 5 kt con dirección variable
Visibilidad 10 km o más
sin nubes por debajo de 1500 m y sin presencia de cumulonimbus.
Temporalmente
del 21 a las 02 UTC al 21 a las 06 UTC
Visibilidad: 2000 m
neblina

TAF: LIMZ 201700Z 2018/2118 VRB05KT CAVOK TEMPO 2102/2106 2000 BR

Observaciones y pronósticos meteorológicos de más de 4000 aeropuertos (mensajes METAR y TAF).

Los puntos amarillos y rojos representan las estaciones disponibles.

Ponga el ratón en el punto deseado para ver el nombre de la estación.

Haga clic para ver las observaciones y los pronósticos meteorológicos.

Para cambiar el mapa : haga clic en los botones verdes con una cruz de color negro para hacer un zoom, en el botón verde con un guión para alejar o en las flechas verdes para mapas adyacentes.


METAR-TAF: